Hovedside
METAR-TAF:

METAR-TAF

Lufthavner :

Gafsa, Tunisia

breddegrad: 34-25N, lengdegrad: 008-49E, høyde over havet: 313 m

Gjeldene værobservasjon

Denne rapporten ble laget for 1 time og 10 minutter siden, klokken 21:00 UTC
Vind 7 kt fra Sør
Temperatur 15°C
Luftfuktighet 59%
Trykk 1023 hPa
Sikt: 8000 m

METAR: DTTF 242100Z 19007KT 8000 NSC 15/07 Q1023 NOSIG

Tid: 23:10 (22:10 UTC)

Varsel

Denne rapporten ble laget for 1 time og 10 minutter siden, klokken 21:00 UTC
Varsel gyldig fra 24. klokken 22 UTC til 25. klokken 07 UTC
Vind 10 kt fra Sør
Sikt: 7000 m
Få skyer i en høyde av 2600 ft

TAF: DTTF 242100Z 2422/2507 17010KT 7000 FEW026

Værobservasjoner og værvarsel for over 4000 flyplasser (METAR- og TAF-rapporter).

Tilgjengelige stasjoner er representert av de røde og gule prikkene på kartet.

Hold musepekeren over prikken for å se navnet på stasjonen.

Klikk så for å se værobservasjoner og -varsler.

For å forandre kartet kan du klikke på den grønne knappen med svart kryss for å zoome inn, på den grønne knappen med strek for å zoome ut, eller på de grønne pilene for å se tilstøtende kart.


METAR-TAF: